الصفحة الرئيسية
METAR-TAF:

METAR-TAF

مطار :

Florești, مولدوفا

دائرة عرض: 47-51-45N, خط طول: 028-12-45E, ارتفاع: 101 متر

مراقبة الطقس الحالي

تاريخ ووقت الإصدار 14ساعات و 1 دقيقة قبل الساعة 10:00UTC
درجة الحرارة 25°درجة مئوية
الرطوبة 61%
ضغط 1014 hPa
الرؤية 10 كم أو أكثر
غيوم متفرقة على ارتفاع 4200 قدم, مزنة ركامية.
غيوم مفككة على ارتفاع 4500 قدم

METAR: LUBM 241000Z /////KT 9999 SCT042CB BKN045 25/17 Q1014

زمن: 03:01 (00:01 UTC)

توقعات

تاريخ ووقت الإصدار 15ساعات و 44 دقيقة قبل الساعة 08:17UTC
التوقعات صالحة من24 الساعة 09 UTC إلى 24 الساعة 18 UTC
ريح 8 عقدة من الشمال الغربي
الرؤية 10 كم أو أكثر
الغيوم لا تقل 1500 م ولا وجود لمزنة ركامية السحاب الأسود
مؤقت
من 24 الساعة 09 UTC إلى 24 الساعة 13 UTC
ريح 15 عقدة من الشمال/الشمال الغربي تتزايد حتى 25 عقدة
غيوم قليلة على ارتفاع 4500 قدم, مزنة ركامية.

TAF: LUBM 240817Z 2409/2418 31008KT CAVOK TEMPO 2409/2413 33015G25KT FEW045CB

أرصاد الطقس والتوقعات من أكثر من 4000 مطار (تقارير الطقس للمطار METAR والتنبؤ بالطقس بالمطارTAF).

المحطات المتاحة هي النقط الصفراء والحمراء على الخريطة.

حرك المؤشر فوق النقطة لمعرفة اسم المحطة.

ثم انقر لمعرفة أرصاد وتوقعات الطقس.

لتغيير الخارطة: اضغط على الأزرار الخضراء مع رمز الصليب الأسود للتكبير. على الزر الأخضر مع شرطة للتصغير، أو على الأسهم الخضراء للخرائط المجاورة.


METAR-TAF: